sensor_id;sensor_type;location;lat;lon;timestamp;pressure;altitude;pressure_sealevel;temperature;humidity
74958;BME280;63741;42.624;26.276;2022-11-20T00:01:24;99408.41;;;14.46;81.12
74958;BME280;63741;42.624;26.276;2022-11-20T00:03:54;99424.78;;;14.51;79.62
74958;BME280;63741;42.624;26.276;2022-11-20T00:06:22;99399.19;;;14.40;80.29
74958;BME280;63741;42.624;26.276;2022-11-20T00:08:54;99401.22;;;14.28;81.03
74958;BME280;63741;42.624;26.276;2022-11-20T00:11:22;99408.41;;;14.18;81.06
74958;BME280;63741;42.624;26.276;2022-11-20T00:13:52;99413.53;;;14.02;82.42
74958;BME280;63741;42.624;26.276;2022-11-20T00:16:21;99393.13;;;14.02;81.83
74958;BME280;63741;42.624;26.276;2022-11-20T00:18:49;99395.56;;;14.13;80.86
74958;BME280;63741;42.624;26.276;2022-11-20T00:21:19;99395.13;;;14.18;80.42
74958;BME280;63741;42.624;26.276;2022-11-20T00:23:48;99395.31;;;14.07;80.44
74958;BME280;63741;42.624;26.276;2022-11-20T00:26:18;99398.81;;;14.07;80.21
74958;BME280;63741;42.624;26.276;2022-11-20T00:28:53;99405.41;;;14.03;80.59
74958;BME280;63741;42.624;26.276;2022-11-20T00:31:20;99398.81;;;13.80;81.22
74958;BME280;63741;42.624;26.276;2022-11-20T00:33:47;99415.16;;;13.85;82.13
74958;BME280;63741;42.624;26.276;2022-11-20T00:36:17;99413.31;;;13.85;81.62
74958;BME280;63741;42.624;26.276;2022-11-20T00:38:44;99418.63;;;13.85;80.54
74958;BME280;63741;42.624;26.276;2022-11-20T00:41:14;99417.81;;;13.85;81.66
74958;BME280;63741;42.624;26.276;2022-11-20T00:43:41;99403.09;;;13.90;80.62
74958;BME280;63741;42.624;26.276;2022-11-20T00:46:13;99400.03;;;13.85;81.43
74958;BME280;63741;42.624;26.276;2022-11-20T00:48:41;99396.13;;;13.80;80.75
74958;BME280;63741;42.624;26.276;2022-11-20T00:51:08;99392.38;;;13.73;81.60
74958;BME280;63741;42.624;26.276;2022-11-20T00:53:35;99382.72;;;13.72;81.22
74958;BME280;63741;42.624;26.276;2022-11-20T00:56:04;99376.28;;;13.74;81.05
74958;BME280;63741;42.624;26.276;2022-11-20T00:58:37;99380.03;;;13.81;80.49
74958;BME280;63741;42.624;26.276;2022-11-20T01:03:39;99366.03;;;13.79;81.82
74958;BME280;63741;42.624;26.276;2022-11-20T01:06:12;99354.13;;;13.83;80.41
74958;BME280;63741;42.624;26.276;2022-11-20T01:08:40;99367.97;;;13.87;81.21
74958;BME280;63741;42.624;26.276;2022-11-20T01:11:10;99378.47;;;13.88;79.55
74958;BME280;63741;42.624;26.276;2022-11-20T01:13:38;99367.13;;;13.86;79.47
74958;BME280;63741;42.624;26.276;2022-11-20T01:18:36;99376.28;;;13.74;79.28
74958;BME280;63741;42.624;26.276;2022-11-20T01:21:10;99373.38;;;13.68;80.23
74958;BME280;63741;42.624;26.276;2022-11-20T01:23:39;99365.72;;;13.55;79.69
74958;BME280;63741;42.624;26.276;2022-11-20T01:26:10;99360.69;;;13.52;81.25
74958;BME280;63741;42.624;26.276;2022-11-20T01:28:38;99373.50;;;13.66;81.42
74958;BME280;63741;42.624;26.276;2022-11-20T01:31:26;99374.19;;;13.68;81.57
74958;BME280;63741;42.624;26.276;2022-11-20T01:33:56;99375.16;;;13.77;80.84
74958;BME280;63741;42.624;26.276;2022-11-20T01:36:26;99366.16;;;13.87;80.49
74958;BME280;63741;42.624;26.276;2022-11-20T01:38:55;99370.56;;;14.06;82.08
74958;BME280;63741;42.624;26.276;2022-11-20T01:41:23;99365.25;;;14.06;80.78
74958;BME280;63741;42.624;26.276;2022-11-20T01:44:12;99347.19;;;14.00;81.29
74958;BME280;63741;42.624;26.276;2022-11-20T01:46:51;99359.22;;;14.04;81.50
74958;BME280;63741;42.624;26.276;2022-11-20T01:49:35;99352.22;;;14.03;81.71
74958;BME280;63741;42.624;26.276;2022-11-20T01:52:17;99358.72;;;14.19;82.14
74958;BME280;63741;42.624;26.276;2022-11-20T01:57:37;99354.41;;;14.35;82.06
74958;BME280;63741;42.624;26.276;2022-11-20T02:00:08;99358.44;;;14.67;81.70
74958;BME280;63741;42.624;26.276;2022-11-20T02:02:41;99332.25;;;14.98;80.09
74958;BME280;63741;42.624;26.276;2022-11-20T02:07:44;99335.88;;;16.01;77.25
74958;BME280;63741;42.624;26.276;2022-11-20T02:10:11;99311.56;;;16.12;76.53
74958;BME280;63741;42.624;26.276;2022-11-20T02:12:39;99342.31;;;16.41;76.39
74958;BME280;63741;42.624;26.276;2022-11-20T02:15:25;99330.00;;;16.56;74.05
74958;BME280;63741;42.624;26.276;2022-11-20T02:17:56;99322.00;;;16.64;73.36
74958;BME280;63741;42.624;26.276;2022-11-20T02:20:23;99335.00;;;16.59;74.67
74958;BME280;63741;42.624;26.276;2022-11-20T02:25:46;99317.88;;;16.78;73.84
74958;BME280;63741;42.624;26.276;2022-11-20T02:28:14;99345.06;;;16.65;74.91
74958;BME280;63741;42.624;26.276;2022-11-20T02:30:41;99309.63;;;16.55;74.67
74958;BME280;63741;42.624;26.276;2022-11-20T02:33:08;99322.47;;;16.52;75.04
74958;BME280;63741;42.624;26.276;2022-11-20T02:35:41;99325.69;;;16.63;74.32
74958;BME280;63741;42.624;26.276;2022-11-20T02:38:08;99339.19;;;16.54;73.98
74958;BME280;63741;42.624;26.276;2022-11-20T02:40:35;99324.22;;;16.77;74.49
74958;BME280;63741;42.624;26.276;2022-11-20T02:43:02;99327.19;;;16.58;74.74
74958;BME280;63741;42.624;26.276;2022-11-20T02:45:29;99310.47;;;16.39;75.95
74958;BME280;63741;42.624;26.276;2022-11-20T02:47:56;99324.94;;;16.29;75.10
74958;BME280;63741;42.624;26.276;2022-11-20T02:50:23;99323.94;;;16.22;75.90
74958;BME280;63741;42.624;26.276;2022-11-20T02:52:50;99311.06;;;16.09;76.82
74958;BME280;63741;42.624;26.276;2022-11-20T02:55:17;99322.34;;;15.95;76.23
74958;BME280;63741;42.624;26.276;2022-11-20T02:57:44;99344.25;;;16.14;75.45
74958;BME280;63741;42.624;26.276;2022-11-20T03:00:11;99326.44;;;16.23;74.31
74958;BME280;63741;42.624;26.276;2022-11-20T03:02:38;99329.94;;;16.24;74.37
74958;BME280;63741;42.624;26.276;2022-11-20T03:05:05;99323.31;;;16.36;75.84
74958;BME280;63741;42.624;26.276;2022-11-20T03:07:32;99318.13;;;16.26;75.87
74958;BME280;63741;42.624;26.276;2022-11-20T03:09:59;99332.75;;;16.14;76.16
74958;BME280;63741;42.624;26.276;2022-11-20T03:12:26;99335.78;;;16.27;73.86
74958;BME280;63741;42.624;26.276;2022-11-20T03:14:53;99336.66;;;16.36;75.50
74958;BME280;63741;42.624;26.276;2022-11-20T03:17:20;99334.63;;;16.38;74.28
74958;BME280;63741;42.624;26.276;2022-11-20T03:19:46;99341.66;;;16.39;76.16
74958;BME280;63741;42.624;26.276;2022-11-20T03:22:13;99328.63;;;16.36;75.67
74958;BME280;63741;42.624;26.276;2022-11-20T03:24:40;99324.94;;;16.29;75.16
74958;BME280;63741;42.624;26.276;2022-11-20T03:27:07;99318.63;;;16.30;76.30
74958;BME280;63741;42.624;26.276;2022-11-20T03:29:37;99315.47;;;16.34;75.76
74958;BME280;63741;42.624;26.276;2022-11-20T03:32:04;99305.84;;;16.66;74.80
74958;BME280;63741;42.624;26.276;2022-11-20T03:34:31;99332.25;;;16.85;73.96
74958;BME280;63741;42.624;26.276;2022-11-20T03:36:58;99333.19;;;16.68;74.04
74958;BME280;63741;42.624;26.276;2022-11-20T03:39:24;99343.53;;;16.55;74.55
74958;BME280;63741;42.624;26.276;2022-11-20T03:41:52;99333.16;;;16.43;74.75
74958;BME280;63741;42.624;26.276;2022-11-20T03:44:20;99328.84;;;16.67;74.35
74958;BME280;63741;42.624;26.276;2022-11-20T03:46:47;99322.69;;;16.66;74.62
74958;BME280;63741;42.624;26.276;2022-11-20T03:49:14;99300.16;;;16.53;74.53
74958;BME280;63741;42.624;26.276;2022-11-20T03:51:41;99311.13;;;16.41;75.41
74958;BME280;63741;42.624;26.276;2022-11-20T03:54:08;99303.59;;;16.29;76.13
74958;BME280;63741;42.624;26.276;2022-11-20T03:56:37;99305.06;;;16.15;76.47
74958;BME280;63741;42.624;26.276;2022-11-20T03:59:05;99302.38;;;15.99;77.05
74958;BME280;63741;42.624;26.276;2022-11-20T04:01:34;99308.50;;;15.91;77.39
74958;BME280;63741;42.624;26.276;2022-11-20T04:04:02;99299.41;;;15.76;77.35
74958;BME280;63741;42.624;26.276;2022-11-20T04:06:34;99289.28;;;15.79;77.31
74958;BME280;63741;42.624;26.276;2022-11-20T04:09:02;99293.41;;;15.74;77.40
74958;BME280;63741;42.624;26.276;2022-11-20T04:11:31;99293.28;;;15.83;77.19
74958;BME280;63741;42.624;26.276;2022-11-20T04:14:04;99275.31;;;15.93;77.16
74958;BME280;63741;42.624;26.276;2022-11-20T04:16:35;99279.47;;;15.88;76.12
74958;BME280;63741;42.624;26.276;2022-11-20T04:19:04;99304.31;;;15.88;77.77
74958;BME280;63741;42.624;26.276;2022-11-20T04:21:32;99304.66;;;15.93;77.26
74958;BME280;63741;42.624;26.276;2022-11-20T04:23:59;99304.53;;;16.03;76.29
74958;BME280;63741;42.624;26.276;2022-11-20T04:26:27;99310.06;;;16.10;76.34
74958;BME280;63741;42.624;26.276;2022-11-20T04:28:55;99307.38;;;16.10;75.74
74958;BME280;63741;42.624;26.276;2022-11-20T04:31:27;99297.69;;;16.01;77.00
74958;BME280;63741;42.624;26.276;2022-11-20T04:33:55;99305.13;;;15.89;77.08
74958;BME280;63741;42.624;26.276;2022-11-20T04:36:26;99306.75;;;15.74;77.13
74958;BME280;63741;42.624;26.276;2022-11-20T04:38:55;99305.03;;;15.64;78.46
74958;BME280;63741;42.624;26.276;2022-11-20T04:41:28;99303.22;;;15.65;77.80
74958;BME280;63741;42.624;26.276;2022-11-20T04:43:58;99294.25;;;15.74;77.71
74958;BME280;63741;42.624;26.276;2022-11-20T04:46:42;99302.59;;;15.79;77.61
74958;BME280;63741;42.624;26.276;2022-11-20T04:49:10;99306.59;;;15.75;77.44
74958;BME280;63741;42.624;26.276;2022-11-20T04:51:37;99323.53;;;15.66;77.20
74958;BME280;63741;42.624;26.276;2022-11-20T04:54:04;99327.97;;;15.57;77.78
74958;BME280;63741;42.624;26.276;2022-11-20T04:56:31;99301.47;;;15.56;77.75
74958;BME280;63741;42.624;26.276;2022-11-20T04:59:02;99315.59;;;15.74;77.48
74958;BME280;63741;42.624;26.276;2022-11-20T05:01:29;99312.88;;;15.66;77.52
74958;BME280;63741;42.624;26.276;2022-11-20T05:03:56;99314.97;;;15.62;77.64
74958;BME280;63741;42.624;26.276;2022-11-20T05:06:23;99328.75;;;15.76;77.12
74958;BME280;63741;42.624;26.276;2022-11-20T05:08:50;99321.31;;;15.87;76.67
74958;BME280;63741;42.624;26.276;2022-11-20T05:11:19;99321.63;;;15.84;76.85
74958;BME280;63741;42.624;26.276;2022-11-20T05:13:48;99329.31;;;15.87;77.20
74958;BME280;63741;42.624;26.276;2022-11-20T05:16:22;99325.59;;;15.72;77.07
74958;BME280;63741;42.624;26.276;2022-11-20T05:18:51;99330.94;;;15.72;77.20
74958;BME280;63741;42.624;26.276;2022-11-20T05:21:18;99335.56;;;15.70;77.57
74958;BME280;63741;42.624;26.276;2022-11-20T05:23:46;99342.72;;;15.70;77.05
74958;BME280;63741;42.624;26.276;2022-11-20T05:26:20;99338.72;;;15.65;77.92
74958;BME280;63741;42.624;26.276;2022-11-20T05:28:49;99333.59;;;15.72;77.34
74958;BME280;63741;42.624;26.276;2022-11-20T05:31:21;99333.78;;;15.79;77.37
74958;BME280;63741;42.624;26.276;2022-11-20T05:33:54;99331.28;;;15.77;77.04
74958;BME280;63741;42.624;26.276;2022-11-20T05:36:22;99345.75;;;16.09;76.14
74958;BME280;63741;42.624;26.276;2022-11-20T05:38:49;99333.19;;;16.01;76.29
74958;BME280;63741;42.624;26.276;2022-11-20T05:41:19;99354.75;;;16.08;76.36
74958;BME280;63741;42.624;26.276;2022-11-20T05:43:47;99349.75;;;16.13;75.93
74958;BME280;63741;42.624;26.276;2022-11-20T05:46:16;99345.94;;;16.24;75.97
74958;BME280;63741;42.624;26.276;2022-11-20T05:48:47;99355.00;;;16.31;75.19
74958;BME280;63741;42.624;26.276;2022-11-20T05:51:17;99353.84;;;16.41;74.99
74958;BME280;63741;42.624;26.276;2022-11-20T05:53:45;99359.84;;;16.52;75.43
74958;BME280;63741;42.624;26.276;2022-11-20T05:56:19;99362.22;;;16.55;74.27
74958;BME280;63741;42.624;26.276;2022-11-20T05:58:47;99357.69;;;16.55;73.13
74958;BME280;63741;42.624;26.276;2022-11-20T06:01:19;99376.91;;;16.59;74.77
74958;BME280;63741;42.624;26.276;2022-11-20T06:03:47;99386.94;;;16.57;74.01
74958;BME280;63741;42.624;26.276;2022-11-20T06:06:15;99366.53;;;16.56;74.39
74958;BME280;63741;42.624;26.276;2022-11-20T06:08:43;99378.72;;;16.50;74.72
74958;BME280;63741;42.624;26.276;2022-11-20T06:11:12;99391.41;;;16.56;74.58
74958;BME280;63741;42.624;26.276;2022-11-20T06:13:39;99396.94;;;16.63;75.27
74958;BME280;63741;42.624;26.276;2022-11-20T06:16:09;99395.94;;;16.64;74.68
74958;BME280;63741;42.624;26.276;2022-11-20T06:18:37;99395.31;;;16.70;73.99
74958;BME280;63741;42.624;26.276;2022-11-20T06:21:08;99381.00;;;16.79;74.18
74958;BME280;63741;42.624;26.276;2022-11-20T06:23:35;99386.47;;;16.78;74.23
74958;BME280;63741;42.624;26.276;2022-11-20T06:26:11;99388.19;;;16.79;74.24
74958;BME280;63741;42.624;26.276;2022-11-20T06:28:38;99392.00;;;16.76;74.47
74958;BME280;63741;42.624;26.276;2022-11-20T06:31:06;99393.34;;;16.88;74.54
74958;BME280;63741;42.624;26.276;2022-11-20T06:33:33;99397.88;;;16.88;74.12
74958;BME280;63741;42.624;26.276;2022-11-20T06:36:01;99396.66;;;16.82;74.63
74958;BME280;63741;42.624;26.276;2022-11-20T06:38:36;99401.69;;;16.77;74.42
74958;BME280;63741;42.624;26.276;2022-11-20T06:41:09;99392.94;;;16.67;75.06
74958;BME280;63741;42.624;26.276;2022-11-20T06:43:37;99405.31;;;16.68;75.37
74958;BME280;63741;42.624;26.276;2022-11-20T06:46:04;99392.13;;;16.66;74.63
74958;BME280;63741;42.624;26.276;2022-11-20T06:48:32;99392.00;;;16.76;74.31
74958;BME280;63741;42.624;26.276;2022-11-20T06:50:59;99405.69;;;16.81;74.35
74958;BME280;63741;42.624;26.276;2022-11-20T06:53:26;99398.00;;;16.86;73.74
74958;BME280;63741;42.624;26.276;2022-11-20T06:55:55;99398.38;;;16.83;74.54
74958;BME280;63741;42.624;26.276;2022-11-20T06:58:25;99401.19;;;16.90;73.83
74958;BME280;63741;42.624;26.276;2022-11-20T07:00:52;99399.69;;;16.87;74.62
74958;BME280;63741;42.624;26.276;2022-11-20T07:03:19;99411.22;;;16.88;74.03
74958;BME280;63741;42.624;26.276;2022-11-20T07:05:46;99414.41;;;17.00;74.00
74958;BME280;63741;42.624;26.276;2022-11-20T07:08:13;99416.72;;;16.95;73.91
74958;BME280;63741;42.624;26.276;2022-11-20T07:10:40;99421.75;;;17.14;73.23
74958;BME280;63741;42.624;26.276;2022-11-20T07:13:07;99425.75;;;17.10;73.86
74958;BME280;63741;42.624;26.276;2022-11-20T07:15:34;99419.91;;;16.98;74.07
74958;BME280;63741;42.624;26.276;2022-11-20T07:18:01;99418.06;;;16.90;74.78
74958;BME280;63741;42.624;26.276;2022-11-20T07:20:28;99422.22;;;16.85;74.79
74958;BME280;63741;42.624;26.276;2022-11-20T07:22:57;99426.22;;;16.81;75.07
74958;BME280;63741;42.624;26.276;2022-11-20T07:25:28;99422.06;;;16.86;75.18
74958;BME280;63741;42.624;26.276;2022-11-20T07:27:59;99419.75;;;16.83;75.46
74958;BME280;63741;42.624;26.276;2022-11-20T07:30:26;99425.41;;;16.80;75.84
74958;BME280;63741;42.624;26.276;2022-11-20T07:32:55;99426.75;;;16.84;74.95
74958;BME280;63741;42.624;26.276;2022-11-20T07:35:23;99424.41;;;16.89;74.95
74958;BME280;63741;42.624;26.276;2022-11-20T07:37:51;99425.72;;;16.85;74.96
74958;BME280;63741;42.624;26.276;2022-11-20T07:40:18;99422.56;;;16.90;74.99
74958;BME280;63741;42.624;26.276;2022-11-20T07:42:54;99420.25;;;16.95;74.88
74958;BME280;63741;42.624;26.276;2022-11-20T07:45:23;99419.09;;;16.98;74.77
74958;BME280;63741;42.624;26.276;2022-11-20T07:47:50;99412.88;;;17.05;75.02
74958;BME280;63741;42.624;26.276;2022-11-20T07:50:18;99415.06;;;17.10;74.84
74958;BME280;63741;42.624;26.276;2022-11-20T07:52:46;99409.06;;;17.16;74.05
74958;BME280;63741;42.624;26.276;2022-11-20T07:55:13;99409.72;;;17.26;74.39
74958;BME280;63741;42.624;26.276;2022-11-20T07:57:40;99404.56;;;17.16;74.86
74958;BME280;63741;42.624;26.276;2022-11-20T08:00:09;99406.22;;;17.17;74.95
74958;BME280;63741;42.624;26.276;2022-11-20T08:02:39;99397.38;;;17.17;74.83
74958;BME280;63741;42.624;26.276;2022-11-20T08:05:08;99389.34;;;17.17;74.21
74958;BME280;63741;42.624;26.276;2022-11-20T08:07:40;99388.69;;;17.15;75.10
74958;BME280;63741;42.624;26.276;2022-11-20T08:10:09;99388.19;;;17.20;75.08
74958;BME280;63741;42.624;26.276;2022-11-20T08:12:44;99392.34;;;17.22;74.34
74958;BME280;63741;42.624;26.276;2022-11-20T08:15:29;99399.69;;;17.36;73.94
74958;BME280;63741;42.624;26.276;2022-11-20T08:18:01;99392.03;;;17.33;74.48
74958;BME280;63741;42.624;26.276;2022-11-20T08:20:48;99398.03;;;17.27;74.21
74958;BME280;63741;42.624;26.276;2022-11-20T08:23:15;99383.69;;;17.28;74.29
74958;BME280;63741;42.624;26.276;2022-11-20T08:25:42;99386.84;;;17.40;73.69
74958;BME280;63741;42.624;26.276;2022-11-20T08:28:09;99389.81;;;17.53;72.34
74958;BME280;63741;42.624;26.276;2022-11-20T08:30:47;99388.81;;;17.54;72.46
74958;BME280;63741;42.624;26.276;2022-11-20T08:33:14;99395.03;;;17.55;72.35
74958;BME280;63741;42.624;26.276;2022-11-20T08:35:40;99397.53;;;17.56;72.29
74958;BME280;63741;42.624;26.276;2022-11-20T08:38:09;99397.00;;;17.53;72.62
74958;BME280;63741;42.624;26.276;2022-11-20T08:40:36;99398.34;;;17.49;72.68
74958;BME280;63741;42.624;26.276;2022-11-20T08:43:03;99407.72;;;17.53;73.25
74958;BME280;63741;42.624;26.276;2022-11-20T08:45:29;99406.22;;;17.50;73.28
74958;BME280;63741;42.624;26.276;2022-11-20T08:48:04;99408.41;;;17.55;73.33
74958;BME280;63741;42.624;26.276;2022-11-20T08:50:31;99409.56;;;17.60;73.19
74958;BME280;63741;42.624;26.276;2022-11-20T08:53:03;99408.53;;;17.61;73.46
74958;BME280;63741;42.624;26.276;2022-11-20T08:55:31;99390.47;;;17.63;72.92
74958;BME280;63741;42.624;26.276;2022-11-20T08:57:58;99392.28;;;17.71;73.19
74958;BME280;63741;42.624;26.276;2022-11-20T09:00:25;99390.31;;;17.73;73.03
74958;BME280;63741;42.624;26.276;2022-11-20T09:02:52;99396.13;;;17.85;72.93
74958;BME280;63741;42.624;26.276;2022-11-20T09:05:19;99385.72;;;18.06;71.94
74958;BME280;63741;42.624;26.276;2022-11-20T09:07:46;99385.56;;;18.00;72.40
74958;BME280;63741;42.624;26.276;2022-11-20T09:10:13;99374.50;;;18.03;72.96
74958;BME280;63741;42.624;26.276;2022-11-20T09:12:49;99368.16;;;18.04;72.60
74958;BME280;63741;42.624;26.276;2022-11-20T09:15:19;99371.81;;;18.11;72.72
74958;BME280;63741;42.624;26.276;2022-11-20T09:17:58;99353.25;;;18.09;72.82
74958;BME280;63741;42.624;26.276;2022-11-20T09:20:27;99351.91;;;18.13;73.16
74958;BME280;63741;42.624;26.276;2022-11-20T09:22:55;99346.84;;;18.18;72.86
74958;BME280;63741;42.624;26.276;2022-11-20T09:25:22;99345.09;;;18.34;71.36
74958;BME280;63741;42.624;26.276;2022-11-20T09:27:59;99342.78;;;18.31;71.39
74958;BME280;63741;42.624;26.276;2022-11-20T09:30:26;99336.13;;;18.18;72.72
74958;BME280;63741;42.624;26.276;2022-11-20T09:32:54;99337.41;;;18.31;71.08
74958;BME280;63741;42.624;26.276;2022-11-20T09:35:21;99335.03;;;18.36;71.14
74958;BME280;63741;42.624;26.276;2022-11-20T09:37:48;99326.03;;;18.29;71.60
74958;BME280;63741;42.624;26.276;2022-11-20T09:40:28;99324.69;;;18.33;71.53
74958;BME280;63741;42.624;26.276;2022-11-20T09:42:57;99318.31;;;18.34;70.73
74958;BME280;63741;42.624;26.276;2022-11-20T09:53:58;99313.84;;;18.26;68.57
74958;BME280;63741;42.624;26.276;2022-11-20T09:56:28;99317.06;;;18.22;68.59
74958;BME280;63741;42.624;26.276;2022-11-20T09:58:58;99307.47;;;18.27;69.52
74958;BME280;63741;42.624;26.276;2022-11-20T10:01:30;99303.78;;;18.28;69.10
74958;BME280;63741;42.624;26.276;2022-11-20T10:06:34;99307.19;;;18.45;68.67
74958;BME280;63741;42.624;26.276;2022-11-20T10:09:31;99302.31;;;18.49;68.82
74958;BME280;63741;42.624;26.276;2022-11-20T10:28:34;99295.84;;;18.89;68.60
74958;BME280;63741;42.624;26.276;2022-11-20T10:31:11;99285.34;;;18.79;68.98
74958;BME280;63741;42.624;26.276;2022-11-20T10:33:43;99286.97;;;18.88;68.50
74958;BME280;63741;42.624;26.276;2022-11-20T10:36:40;99293.81;;;18.91;67.64
74958;BME280;63741;42.624;26.276;2022-11-20T10:41:59;99295.06;;;19.18;65.65
74958;BME280;63741;42.624;26.276;2022-11-20T10:44:29;99297.00;;;19.24;65.58
74958;BME280;63741;42.624;26.276;2022-11-20T10:47:22;99289.44;;;19.28;65.78
74958;BME280;63741;42.624;26.276;2022-11-20T10:49:52;99303.88;;;19.27;66.22
74958;BME280;63741;42.624;26.276;2022-11-20T10:52:37;99301.38;;;19.25;65.68
74958;BME280;63741;42.624;26.276;2022-11-20T10:55:50;99300.09;;;19.36;65.51
74958;BME280;63741;42.624;26.276;2022-11-20T11:01:18;99302.22;;;19.26;65.34
74958;BME280;63741;42.624;26.276;2022-11-20T11:03:45;99296.44;;;19.14;65.93
74958;BME280;63741;42.624;26.276;2022-11-20T11:06:25;99295.44;;;19.15;65.59
74958;BME280;63741;42.624;26.276;2022-11-20T11:08:59;99287.97;;;19.25;64.68
74958;BME280;63741;42.624;26.276;2022-11-20T11:11:30;99284.16;;;19.19;65.61
74958;BME280;63741;42.624;26.276;2022-11-20T11:14:12;99270.66;;;19.28;65.43
74958;BME280;63741;42.624;26.276;2022-11-20T11:16:51;99263.56;;;19.35;65.03
74958;BME280;63741;42.624;26.276;2022-11-20T11:19:18;99274.47;;;19.48;63.96
74958;BME280;63741;42.624;26.276;2022-11-20T11:21:56;99270.03;;;19.55;64.21
74958;BME280;63741;42.624;26.276;2022-11-20T11:24:25;99259.22;;;19.49;64.09
74958;BME280;63741;42.624;26.276;2022-11-20T11:27:13;99266.16;;;19.58;63.78
74958;BME280;63741;42.624;26.276;2022-11-20T11:29:44;99246.91;;;19.54;64.27
74958;BME280;63741;42.624;26.276;2022-11-20T11:32:20;99246.00;;;19.47;63.94
74958;BME280;63741;42.624;26.276;2022-11-20T11:35:01;99234.25;;;19.48;64.09
74958;BME280;63741;42.624;26.276;2022-11-20T11:37:36;99237.56;;;19.50;63.79
74958;BME280;63741;42.624;26.276;2022-11-20T11:40:05;99243.13;;;19.49;63.75
74958;BME280;63741;42.624;26.276;2022-11-20T11:43:49;99245.41;;;19.37;64.55
74958;BME280;63741;42.624;26.276;2022-11-20T11:46:30;99241.44;;;19.33;64.86
74958;BME280;63741;42.624;26.276;2022-11-20T11:49:15;99227.03;;;19.34;63.99
74958;BME280;63741;42.624;26.276;2022-11-20T11:54:43;99224.09;;;19.29;64.35
74958;BME280;63741;42.624;26.276;2022-11-20T11:57:29;99223.91;;;19.15;64.29
74958;BME280;63741;42.624;26.276;2022-11-20T12:00:12;99219.91;;;19.26;64.50
74958;BME280;63741;42.624;26.276;2022-11-20T12:02:53;99214.34;;;19.28;63.71
74958;BME280;63741;42.624;26.276;2022-11-20T12:05:41;99206.59;;;19.18;64.30
74958;BME280;63741;42.624;26.276;2022-11-20T12:16:03;99205.75;;;19.17;64.30
74958;BME280;63741;42.624;26.276;2022-11-20T12:18:30;99198.47;;;19.26;63.95
74958;BME280;63741;42.624;26.276;2022-11-20T12:24:32;99191.84;;;19.58;62.40
74958;BME280;63741;42.624;26.276;2022-11-20T12:27:24;99182.63;;;19.46;63.11
74958;BME280;63741;42.624;26.276;2022-11-20T12:35:53;99205.84;;;19.39;62.88
74958;BME280;63741;42.624;26.276;2022-11-20T12:52:53;99189.88;;;19.16;64.48
74958;BME280;63741;42.624;26.276;2022-11-20T13:04:39;99181.44;;;19.04;65.64
74958;BME280;63741;42.624;26.276;2022-11-20T13:07:13;99169.97;;;18.96;66.40
74958;BME280;63741;42.624;26.276;2022-11-20T13:09:45;99171.09;;;19.01;65.73
74958;BME280;63741;42.624;26.276;2022-11-20T13:12:30;99168.88;;;19.05;64.83
74958;BME280;63741;42.624;26.276;2022-11-20T13:20:19;99166.75;;;19.30;62.71
74958;BME280;63741;42.624;26.276;2022-11-20T13:22:51;99162.22;;;19.30;62.83
74958;BME280;63741;42.624;26.276;2022-11-20T13:25:26;99170.63;;;19.27;63.56
74958;BME280;63741;42.624;26.276;2022-11-20T13:27:55;99157.03;;;19.14;63.74
74958;BME280;63741;42.624;26.276;2022-11-20T13:30:26;99156.66;;;19.17;63.44
74958;BME280;63741;42.624;26.276;2022-11-20T13:33:04;99154.91;;;19.09;64.36
74958;BME280;63741;42.624;26.276;2022-11-20T13:35:35;99159.81;;;19.06;63.54
74958;BME280;63741;42.624;26.276;2022-11-20T13:38:14;99154.00;;;19.02;64.68
74958;BME280;63741;42.624;26.276;2022-11-20T13:40:59;99146.78;;;19.03;63.26
74958;BME280;63741;42.624;26.276;2022-11-20T13:43:47;99158.59;;;19.23;62.60
74958;BME280;63741;42.624;26.276;2022-11-20T13:46:14;99165.81;;;19.23;61.07
74958;BME280;63741;42.624;26.276;2022-11-20T13:48:46;99139.38;;;19.05;62.43
74958;BME280;63741;42.624;26.276;2022-11-20T13:51:23;99161.09;;;19.10;62.34
74958;BME280;63741;42.624;26.276;2022-11-20T13:54:10;99159.25;;;19.25;61.19
74958;BME280;63741;42.624;26.276;2022-11-20T13:57:06;99160.00;;;19.19;62.04
74958;BME280;63741;42.624;26.276;2022-11-20T14:02:36;99148.91;;;19.07;62.29
74958;BME280;63741;42.624;26.276;2022-11-20T14:05:04;99142.16;;;19.11;61.78
74958;BME280;63741;42.624;26.276;2022-11-20T14:07:39;99143.16;;;19.10;62.01
74958;BME280;63741;42.624;26.276;2022-11-20T14:10:22;99152.78;;;19.19;61.31
74958;BME280;63741;42.624;26.276;2022-11-20T14:12:57;99136.50;;;19.06;61.63
74958;BME280;63741;42.624;26.276;2022-11-20T14:15:30;99145.94;;;19.17;60.66
74958;BME280;63741;42.624;26.276;2022-11-20T14:17:58;99127.47;;;19.07;61.03
74958;BME280;63741;42.624;26.276;2022-11-20T14:20:27;99136.69;;;19.05;61.25
74958;BME280;63741;42.624;26.276;2022-11-20T14:22:55;99136.41;;;19.14;61.01
74958;BME280;63741;42.624;26.276;2022-11-20T14:25:25;99140.78;;;19.15;60.54
74958;BME280;63741;42.624;26.276;2022-11-20T14:27:57;99142.16;;;19.11;60.75
74958;BME280;63741;42.624;26.276;2022-11-20T14:30:26;99135.97;;;19.11;61.18
74958;BME280;63741;42.624;26.276;2022-11-20T14:32:56;99133.28;;;18.96;61.76
74958;BME280;63741;42.624;26.276;2022-11-20T14:35:27;99125.25;;;18.81;61.98
74958;BME280;63741;42.624;26.276;2022-11-20T14:37:55;99137.91;;;18.87;61.21
74958;BME280;63741;42.624;26.276;2022-11-20T14:42:51;99133.19;;;18.75;62.37
74958;BME280;63741;42.624;26.276;2022-11-20T14:45:18;99137.97;;;18.79;62.39
74958;BME280;63741;42.624;26.276;2022-11-20T14:47:46;99129.50;;;18.76;62.59
74958;BME280;63741;42.624;26.276;2022-11-20T14:50:22;99130.34;;;18.76;62.07
74958;BME280;63741;42.624;26.276;2022-11-20T14:52:54;99136.53;;;18.77;62.24